Time;durP1;ratioP1;P1;durP2;ratioP2;P2;SDS_P1;SDS_P2;PMS_P1;PMS_P2;Temp;Humidity;BMP_temperature;BMP_pressure;BME280_temperature;BME280_humidity;BME280_pressure;Samples;Min_cycle;Max_cycle;Signal;HPM_P1;HPM_P2
2023/07/21 00:00:00;;;;;;;2.17;1.97;;;16.20;99.90;;;;;;5126783;27;20482;-77
2023/07/21 00:02:28;;;;;;;6.80;1.83;;;16.10;99.90;;;;;;5120680;27;20470;-78
2023/07/21 00:04:55;;;;;;;2.47;1.70;;;16.10;99.90;;;;;;5116810;27;20464;-78
2023/07/21 00:07:24;;;;;;;2.00;1.87;;;16.00;99.90;;;;;;5118049;27;20438;-77
2023/07/21 00:09:52;;;;;;;2.40;2.00;;;16.00;99.90;;;;;;5127945;27;20465;-78
2023/07/21 00:12:19;;;;;;;3.00;2.00;;;16.10;99.90;;;;;;5117828;27;20528;-77
2023/07/21 00:14:46;;;;;;;2.53;2.43;;;16.10;99.90;;;;;;5114291;27;20500;-77
2023/07/21 00:17:12;;;;;;;3.13;1.80;;;16.00;99.90;;;;;;5113163;27;20460;-76
2023/07/21 00:19:41;;;;;;;2.47;2.27;;;16.00;99.90;;;;;;5117848;27;20486;-77
2023/07/21 00:22:08;;;;;;;2.03;1.60;;;16.00;99.90;;;;;;5127279;27;20534;-77
2023/07/21 00:24:35;;;;;;;2.27;2.03;;;16.10;99.90;;;;;;5117779;27;20536;-77
2023/07/21 00:27:02;;;;;;;3.37;1.97;;;16.10;99.90;;;;;;5123480;27;20450;-78
2023/07/21 00:29:31;;;;;;;4.67;3.00;;;16.10;99.90;;;;;;5121681;27;20455;-77
2023/07/21 00:31:58;;;;;;;2.87;2.67;;;16.20;99.90;;;;;;5123271;27;20447;-77
2023/07/21 00:34:26;;;;;;;1.73;1.60;;;16.20;99.90;;;;;;5113337;27;20460;-78
2023/07/21 00:36:56;;;;;;;2.27;2.10;;;16.10;99.90;;;;;;5115260;27;21014;-77
2023/07/21 00:39:24;;;;;;;1.60;1.50;;;16.00;99.90;;;;;;5120827;27;20492;-77
2023/07/21 00:41:52;;;;;;;4.20;1.93;;;16.00;99.90;;;;;;5110848;27;20463;-77
2023/07/21 00:44:19;;;;;;;3.90;2.23;;;16.00;99.90;;;;;;5116080;27;20806;-77
2023/07/21 00:46:46;;;;;;;2.20;2.10;;;16.00;99.90;;;;;;5124505;27;20474;-78
2023/07/21 00:49:13;;;;;;;2.30;2.10;;;16.00;99.90;;;;;;5116248;27;20899;-77
2023/07/21 00:51:40;;;;;;;3.20;2.20;;;16.00;99.90;;;;;;5121661;27;20473;-77
2023/07/21 00:54:08;;;;;;;2.90;1.90;;;16.00;99.90;;;;;;5124515;27;20451;-77
2023/07/21 00:56:35;;;;;;;3.47;3.13;;;15.90;99.90;;;;;;5122980;27;20572;-77
2023/07/21 00:59:04;;;;;;;2.57;2.37;;;15.90;99.90;;;;;;5121340;27;20478;-78
2023/07/21 01:01:30;;;;;;;3.40;1.63;;;15.80;99.90;;;;;;5126736;27;20486;-77
2023/07/21 01:03:58;;;;;;;2.47;1.87;;;15.80;99.90;;;;;;5122315;27;20924;-78
2023/07/21 01:06:27;;;;;;;2.97;1.87;;;15.80;99.90;;;;;;5121034;27;20957;-77
2023/07/21 01:08:56;;;;;;;2.13;1.40;;;15.90;99.90;;;;;;5118721;27;21156;-78
2023/07/21 01:11:25;;;;;;;4.47;2.07;;;15.90;99.90;;;;;;5120507;27;20450;-78
2023/07/21 01:13:54;;;;;;;5.47;2.00;;;15.70;99.90;;;;;;5123465;28;20471;-78
2023/07/21 01:16:22;;;;;;;1.80;1.70;;;15.60;99.90;;;;;;5113836;27;20875;-77
2023/07/21 01:18:50;;;;;;;1.93;1.73;;;15.60;99.90;;;;;;5115370;27;20545;-78
2023/07/21 01:21:30;;;;;;;1.87;1.70;;;15.60;99.90;;;;;;5117372;28;20496;-78
2023/07/21 01:24:05;;;;;;;2.87;1.70;;;15.80;99.90;;;;;;5119974;28;20464;-77
2023/07/21 01:26:36;;;;;;;3.50;1.47;;;15.90;99.90;;;;;;5124321;27;20437;-78
2023/07/21 01:29:04;;;;;;;3.60;1.70;;;15.80;99.90;;;;;;5117579;27;21016;-77
2023/07/21 01:31:31;;;;;;;1.67;1.57;;;15.70;99.90;;;;;;5121910;27;20541;-77
2023/07/21 01:33:58;;;;;;;2.20;1.70;;;15.60;99.90;;;;;;5113451;28;20537;-77
2023/07/21 01:36:26;;;;;;;1.67;1.57;;;15.60;99.90;;;;;;5120429;27;20474;-77
2023/07/21 01:38:54;;;;;;;1.97;1.77;;;15.50;99.90;;;;;;5121386;28;20909;-78
2023/07/21 01:41:21;;;;;;;4.50;1.43;;;15.50;99.90;;;;;;5115031;27;20485;-78
2023/07/21 01:43:50;;;;;;;3.30;2.10;;;15.60;99.90;;;;;;5112023;27;20471;-78
2023/07/21 01:46:17;;;;;;;1.80;1.70;;;15.50;99.90;;;;;;5120461;27;20546;-78
2023/07/21 01:48:47;;;;;;;1.83;1.70;;;15.50;99.90;;;;;;5117638;27;20520;-77
2023/07/21 01:51:15;;;;;;;3.13;1.77;;;15.60;99.90;;;;;;5115212;27;21232;-77
2023/07/21 01:53:47;;;;;;;2.70;2.20;;;15.50;99.90;;;;;;5126488;27;20438;-78
2023/07/21 01:56:21;;;;;;;2.17;1.93;;;15.40;99.90;;;;;;5126993;27;20541;-77
2023/07/21 01:58:51;;;;;;;3.27;2.43;;;15.40;99.90;;;;;;5124779;27;20456;-77
2023/07/21 02:01:19;;;;;;;1.93;1.60;;;15.40;99.90;;;;;;5121138;27;20517;-77
2023/07/21 02:03:49;;;;;;;2.20;2.00;;;15.50;99.90;;;;;;5123378;27;20482;-77
2023/07/21 02:06:17;;;;;;;3.20;3.00;;;15.50;99.90;;;;;;5125297;27;20446;-77
2023/07/21 02:08:44;;;;;;;3.57;2.77;;;15.60;99.90;;;;;;5129418;27;20467;-76
2023/07/21 02:11:11;;;;;;;5.50;2.67;;;15.50;99.90;;;;;;5125836;27;20508;-78
2023/07/21 02:13:39;;;;;;;2.57;2.17;;;15.60;99.90;;;;;;5128463;27;20546;-78
2023/07/21 02:16:07;;;;;;;6.20;1.80;;;15.60;99.90;;;;;;5122420;27;20904;-77
2023/07/21 02:18:35;;;;;;;2.23;2.03;;;15.70;99.90;;;;;;5125130;27;20527;-79
2023/07/21 02:21:03;;;;;;;1.97;1.83;;;15.80;99.90;;;;;;5125241;27;20483;-77
2023/07/21 02:23:31;;;;;;;5.70;2.43;;;15.80;99.90;;;;;;5123488;27;20537;-77
2023/07/21 02:25:57;;;;;;;2.60;1.73;;;15.80;99.90;;;;;;5126126;27;20545;-78
2023/07/21 02:28:24;;;;;;;2.70;1.57;;;15.90;99.90;;;;;;5124288;27;20509;-77
2023/07/21 02:30:59;;;;;;;3.30;2.00;;;15.90;99.90;;;;;;5116738;27;20549;-77
2023/07/21 02:33:27;;;;;;;4.60;1.63;;;15.90;99.90;;;;;;5117698;27;20476;-77
2023/07/21 02:35:54;;;;;;;6.83;3.43;;;15.90;99.90;;;;;;5125013;27;20540;-77
2023/07/21 02:38:21;;;;;;;3.10;1.70;;;15.90;99.90;;;;;;5117550;27;20541;-78
2023/07/21 02:40:48;;;;;;;3.73;2.20;;;15.90;99.90;;;;;;5122797;27;20515;-77
2023/07/21 02:43:16;;;;;;;1.77;1.67;;;16.00;99.90;;;;;;5118354;27;20553;-77
2023/07/21 02:45:49;;;;;;;2.43;2.10;;;16.10;99.90;;;;;;5122414;27;20452;-78
2023/07/21 02:48:17;;;;;;;4.57;1.80;;;16.30;99.90;;;;;;5121130;27;20494;-77
2023/07/21 02:50:48;;;;;;;3.27;2.93;;;16.20;99.90;;;;;;5127181;27;20513;-77
2023/07/21 02:53:15;;;;;;;1.63;1.53;;;16.30;99.90;;;;;;5117027;27;20848;-77
2023/07/21 02:55:43;;;;;;;2.50;2.27;;;16.20;99.90;;;;;;5128760;27;20443;-77
2023/07/21 02:58:12;;;;;;;2.70;2.50;;;15.90;99.90;;;;;;5126200;27;20562;-77
2023/07/21 03:00:40;;;;;;;1.73;1.50;;;15.80;99.90;;;;;;5115411;27;20607;-77
2023/07/21 03:03:07;;;;;;;1.87;1.77;;;15.70;99.90;;;;;;5118275;27;20446;-77
2023/07/21 03:05:34;;;;;;;1.73;1.10;;;15.70;99.90;;;;;;5121435;27;20442;-77
2023/07/21 03:08:03;;;;;;;2.80;1.17;;;15.60;99.90;;;;;;5120212;27;20533;-77
2023/07/21 03:10:30;;;;;;;1.63;1.30;;;15.60;99.90;;;;;;5118250;27;20475;-76
2023/07/21 03:12:57;;;;;;;3.67;1.90;;;15.50;99.90;;;;;;5118036;27;20486;-77
2023/07/21 03:15:25;;;;;;;2.67;1.43;;;15.50;99.90;;;;;;5121826;27;20555;-77
2023/07/21 03:17:52;;;;;;;2.73;1.43;;;15.60;99.90;;;;;;5119251;27;20570;-77
2023/07/21 03:20:19;;;;;;;3.47;1.43;;;15.60;99.90;;;;;;5127520;27;20573;-77
2023/07/21 03:22:46;;;;;;;10.53;4.80;;;15.50;99.90;;;;;;5117307;27;20446;-77
2023/07/21 03:25:15;;;;;;;1.93;1.30;;;15.50;99.90;;;;;;5124221;27;20552;-77
2023/07/21 03:27:43;;;;;;;3.33;1.80;;;15.30;99.90;;;;;;5112438;27;21029;-77
2023/07/21 03:30:10;;;;;;;1.20;1.10;;;15.30;99.90;;;;;;5118153;27;20489;-77
2023/07/21 03:32:38;;;;;;;1.50;1.40;;;15.20;99.90;;;;;;5121112;27;20467;-78
2023/07/21 03:35:05;;;;;;;2.03;1.03;;;15.20;99.90;;;;;;5127203;27;20450;-77
2023/07/21 03:37:34;;;;;;;2.17;1.57;;;15.30;99.90;;;;;;5119050;27;20995;-77
2023/07/21 03:40:02;;;;;;;2.30;1.27;;;15.50;99.90;;;;;;5118768;27;20459;-77
2023/07/21 03:42:31;;;;;;;4.83;1.70;;;15.50;99.90;;;;;;5114700;27;20977;-78
2023/07/21 03:44:57;;;;;;;7.03;2.40;;;15.70;99.90;;;;;;5108827;27;20498;-78
2023/07/21 03:47:25;;;;;;;1.87;1.30;;;15.80;99.90;;;;;;5122105;27;22504;-77
2023/07/21 03:49:52;;;;;;;1.83;1.73;;;15.80;99.90;;;;;;5120771;27;20452;-78
2023/07/21 03:52:20;;;;;;;1.57;1.47;;;15.90;99.90;;;;;;5123883;27;21152;-78
2023/07/21 03:54:46;;;;;;;6.30;1.70;;;15.90;99.90;;;;;;5114206;27;20475;-78
2023/07/21 03:57:14;;;;;;;2.37;2.17;;;15.80;99.90;;;;;;5126226;27;20469;-78
2023/07/21 03:59:43;;;;;;;1.97;1.37;;;15.80;99.90;;;;;;5126229;27;20455;-77
2023/07/21 04:02:10;;;;;;;1.83;1.70;;;15.80;99.90;;;;;;5122568;27;20541;-77
2023/07/21 04:04:37;;;;;;;3.17;2.00;;;15.80;99.90;;;;;;5120055;27;20448;-77
2023/07/21 04:07:05;;;;;;;3.53;2.20;;;15.70;99.90;;;;;;5124427;27;20543;-77
2023/07/21 04:09:32;;;;;;;2.90;2.30;;;15.70;99.90;;;;;;5125162;27;20457;-78
2023/07/21 04:11:59;;;;;;;3.50;1.87;;;15.90;99.90;;;;;;5123695;27;20534;-77
2023/07/21 04:14:26;;;;;;;2.40;1.63;;;15.90;99.90;;;;;;5124290;27;20452;-76
2023/07/21 04:16:55;;;;;;;2.83;1.80;;;16.00;99.90;;;;;;5110461;27;20490;-76
2023/07/21 04:19:25;;;;;;;2.23;2.10;;;16.00;99.90;;;;;;5122741;27;20961;-75
2023/07/21 04:21:52;;;;;;;1.87;1.63;;;16.10;99.90;;;;;;5124369;27;20576;-75
2023/07/21 04:24:19;;;;;;;3.10;2.00;;;16.10;99.90;;;;;;5116875;27;20494;-75
2023/07/21 04:26:47;;;;;;;3.30;1.97;;;16.10;99.90;;;;;;5117678;27;21175;-76
2023/07/21 04:29:14;;;;;;;2.40;1.97;;;16.10;99.90;;;;;;5116965;27;20509;-75
2023/07/21 04:31:41;;;;;;;2.90;2.13;;;16.10;99.90;;;;;;5114956;27;20523;-76
2023/07/21 04:34:09;;;;;;;2.00;1.90;;;16.00;99.90;;;;;;5119078;27;20466;-74
2023/07/21 04:36:37;;;;;;;2.23;1.37;;;16.10;99.90;;;;;;5115927;27;20526;-75
2023/07/21 04:39:04;;;;;;;3.33;2.20;;;16.20;99.90;;;;;;5119555;27;20528;-75
2023/07/21 04:41:31;;;;;;;3.47;1.50;;;16.40;99.90;;;;;;5115989;27;21243;-75
2023/07/21 04:43:58;;;;;;;2.10;1.63;;;16.30;99.90;;;;;;5117005;27;20478;-75
2023/07/21 04:46:25;;;;;;;2.60;2.40;;;16.40;99.90;;;;;;5120191;27;20487;-75
2023/07/21 04:48:52;;;;;;;2.00;1.67;;;16.40;99.90;;;;;;5117373;27;20889;-75
2023/07/21 04:51:20;;;;;;;1.73;1.63;;;16.50;99.90;;;;;;5109631;27;20539;-74
2023/07/21 04:53:47;;;;;;;4.33;1.13;;;16.70;99.90;;;;;;5120309;27;20446;-74
2023/07/21 04:56:14;;;;;;;2.40;2.20;;;16.90;99.90;;;;;;5121725;27;20495;-75
2023/07/21 04:58:41;;;;;;;1.50;1.40;;;16.90;99.90;;;;;;5126570;27;20544;-75
2023/07/21 05:01:08;;;;;;;3.30;2.40;;;16.90;99.90;;;;;;5110850;27;20544;-75
2023/07/21 05:03:35;;;;;;;4.93;2.10;;;16.90;99.90;;;;;;5123443;27;20499;-75
2023/07/21 05:06:02;;;;;;;6.20;2.50;;;16.90;99.90;;;;;;5127446;27;20477;-76
2023/07/21 05:08:30;;;;;;;2.50;2.17;;;16.60;99.90;;;;;;5126615;27;20928;-75
2023/07/21 05:10:57;;;;;;;1.83;1.40;;;16.50;99.90;;;;;;5123392;27;20497;-74
2023/07/21 05:13:24;;;;;;;2.60;2.13;;;16.30;99.90;;;;;;5126493;28;20494;-76
2023/07/21 05:15:51;;;;;;;2.03;1.63;;;16.20;99.90;;;;;;5126931;27;20992;-76
2023/07/21 05:18:18;;;;;;;3.30;1.60;;;16.10;99.90;;;;;;5124355;27;20547;-77
2023/07/21 05:20:45;;;;;;;4.87;1.60;;;16.30;99.90;;;;;;5125888;27;20450;-76
2023/07/21 05:23:12;;;;;;;3.03;2.27;;;16.40;99.90;;;;;;5126761;28;20916;-77
2023/07/21 05:25:40;;;;;;;2.43;1.40;;;16.40;99.90;;;;;;5126906;27;20454;-74
2023/07/21 05:28:08;;;;;;;2.53;2.30;;;16.20;99.90;;;;;;5120832;27;20516;-75
2023/07/21 05:30:35;;;;;;;2.70;2.00;;;16.20;99.90;;;;;;5128346;27;20462;-74
2023/07/21 05:33:02;;;;;;;6.83;2.90;;;16.10;99.90;;;;;;5130445;27;20441;-76
2023/07/21 05:35:30;;;;;;;2.07;1.90;;;16.00;99.90;;;;;;5128409;27;20469;-76
2023/07/21 05:37:56;;;;;;;4.80;1.83;;;16.10;99.90;;;;;;5130891;27;20991;-74
2023/07/21 05:40:23;;;;;;;3.00;2.70;;;16.20;99.90;;;;;;5130950;27;20536;-74
2023/07/21 05:42:52;;;;;;;2.43;2.23;;;16.30;99.90;;;;;;5129442;27;20485;-74
2023/07/21 05:45:19;;;;;;;5.77;2.57;;;16.50;99.90;;;;;;5130653;27;20537;-76
2023/07/21 05:47:45;;;;;;;2.80;2.37;;;16.60;99.90;;;;;;5129657;27;20539;-75
2023/07/21 05:50:12;;;;;;;2.53;2.33;;;16.60;99.90;;;;;;5119131;27;20551;-79
2023/07/21 05:52:40;;;;;;;5.57;2.97;;;16.50;99.90;;;;;;5126191;27;20978;-85
2023/07/21 05:55:07;;;;;;;2.23;2.03;;;16.30;99.90;;;;;;5128017;27;20535;-75
2023/07/21 05:57:34;;;;;;;2.00;1.83;;;16.30;99.90;;;;;;5128279;27;20843;-76
2023/07/21 06:00:04;;;;;;;2.97;2.57;;;16.30;99.90;;;;;;5124504;27;21421;-76
2023/07/21 06:02:31;;;;;;;3.73;2.30;;;16.40;99.90;;;;;;5122674;27;20919;-77
2023/07/21 06:04:58;;;;;;;3.20;3.00;;;16.40;99.90;;;;;;5124166;27;20443;-77
2023/07/21 06:07:25;;;;;;;3.00;2.80;;;16.20;99.90;;;;;;5126962;27;20457;-76
2023/07/21 06:09:52;;;;;;;2.40;2.20;;;16.20;99.90;;;;;;5116070;27;21142;-76
2023/07/21 06:12:19;;;;;;;3.27;3.07;;;16.00;99.90;;;;;;5112999;27;20557;-77
2023/07/21 06:14:47;;;;;;;3.63;2.80;;;15.90;99.90;;;;;;5121133;27;20555;-78
2023/07/21 06:17:15;;;;;;;5.23;2.77;;;15.90;99.90;;;;;;5113828;27;20500;-78
2023/07/21 06:19:42;;;;;;;4.93;3.50;;;15.90;99.90;;;;;;5121596;27;20468;-77
2023/07/21 06:22:09;;;;;;;3.90;3.40;;;15.90;99.90;;;;;;5113982;27;20509;-82
2023/07/21 06:24:36;;;;;;;2.50;2.40;;;15.80;99.90;;;;;;5121447;27;20552;-88
2023/07/21 06:27:03;;;;;;;2.70;2.50;;;15.70;99.90;;;;;;5125959;27;20464;-86
2023/07/21 06:29:30;;;;;;;6.07;3.03;;;15.80;99.90;;;;;;5123666;27;20441;-84
2023/07/21 06:31:57;;;;;;;2.33;2.00;;;15.90;99.90;;;;;;5126085;27;20545;-82
2023/07/21 06:34:25;;;;;;;3.33;3.03;;;15.90;99.90;;;;;;5124815;27;20447;-80
2023/07/21 06:36:52;;;;;;;4.60;2.53;;;15.90;99.90;;;;;;5113581;27;20473;-80
2023/07/21 06:39:22;;;;;;;2.77;2.43;;;16.00;99.90;;;;;;5123342;27;20482;-81
2023/07/21 06:41:51;;;;;;;3.60;3.30;;;16.00;99.90;;;;;;5118181;27;20569;-87
2023/07/21 06:44:20;;;;;;;3.77;2.83;;;16.20;99.90;;;;;;5124847;27;20543;-81
2023/07/21 06:46:47;;;;;;;3.13;2.93;;;16.20;99.90;;;;;;5121045;27;20474;-81
2023/07/21 06:49:15;;;;;;;3.10;2.90;;;16.20;99.90;;;;;;5119910;27;20871;-79
2023/07/21 06:51:43;;;;;;;2.10;1.87;;;16.40;99.90;;;;;;5120059;27;21079;-80
2023/07/21 06:54:11;;;;;;;2.57;2.37;;;16.40;99.90;;;;;;5125601;27;20481;-80
2023/07/21 06:56:39;;;;;;;3.00;2.80;;;16.60;99.90;;;;;;5112965;27;20566;-80
2023/07/21 06:59:06;;;;;;;3.10;2.40;;;17.00;99.90;;;;;;5120965;27;20849;-84
2023/07/21 07:01:33;;;;;;;3.20;2.53;;;17.20;99.90;;;;;;5120816;27;20482;-80
2023/07/21 07:04:00;;;;;;;2.67;1.93;;;17.50;99.90;;;;;;5126645;27;20925;-81
2023/07/21 07:06:28;;;;;;;3.07;2.70;;;17.90;99.90;;;;;;5127825;27;20473;-82
2023/07/21 07:08:57;;;;;;;2.63;2.43;;;18.20;99.90;;;;;;5129976;27;20446;-82
2023/07/21 07:11:24;;;;;;;2.70;2.20;;;18.30;99.90;;;;;;5126115;27;20526;-83
2023/07/21 07:13:51;;;;;;;2.70;1.97;;;18.70;99.90;;;;;;5128342;27;20573;-81
2023/07/21 07:16:18;;;;;;;2.23;1.70;;;18.50;99.90;;;;;;5127306;27;20588;-84
2023/07/21 07:18:45;;;;;;;1.60;1.50;;;18.30;99.90;;;;;;5126562;27;20464;-83
2023/07/21 07:21:12;;;;;;;4.10;2.43;;;18.30;99.90;;;;;;5128798;27;20541;-77
2023/07/21 07:23:39;;;;;;;3.73;2.43;;;18.30;99.90;;;;;;5127845;27;20963;-81
2023/07/21 07:26:07;;;;;;;1.83;1.73;;;18.40;99.90;;;;;;5127433;27;20497;-78
2023/07/21 07:28:34;;;;;;;2.50;2.30;;;18.40;99.90;;;;;;5127782;27;21056;-80
2023/07/21 07:31:05;;;;;;;2.63;1.60;;;18.40;99.90;;;;;;5126670;27;21099;-80
2023/07/21 07:33:32;;;;;;;2.70;2.23;;;18.40;99.90;;;;;;5126830;27;20457;-79
2023/07/21 07:35:59;;;;;;;3.83;2.43;;;18.40;99.90;;;;;;5127893;27;20455;-80
2023/07/21 07:38:29;;;;;;;2.53;1.57;;;18.70;99.90;;;;;;5124839;27;20481;-80
2023/07/21 07:41:01;;;;;;;5.70;1.90;;;18.90;99.90;;;;;;5124673;27;21018;-78
2023/07/21 07:43:29;;;;;;;3.00;2.50;;;18.90;99.90;;;;;;5123763;27;20481;-80
2023/07/21 07:45:58;;;;;;;4.73;1.90;;;19.10;99.90;;;;;;5127435;27;20491;-80
2023/07/21 07:48:25;;;;;;;2.13;1.93;;;19.10;99.90;;;;;;5125402;27;20462;-81
2023/07/21 07:50:53;;;;;;;2.63;2.20;;;19.10;99.90;;;;;;5126978;27;20579;-81
2023/07/21 07:53:20;;;;;;;4.10;1.77;;;19.30;99.90;;;;;;5128003;27;20437;-79
2023/07/21 07:55:50;;;;;;;2.67;2.43;;;19.30;99.90;;;;;;5125001;27;20979;-78
2023/07/21 07:58:17;;;;;;;1.53;1.43;;;19.50;99.90;;;;;;5126351;27;20541;-78
2023/07/21 08:00:47;;;;;;;2.83;2.00;;;19.70;99.90;;;;;;5124171;27;20924;-80
2023/07/21 08:03:15;;;;;;;3.47;2.10;;;19.90;99.90;;;;;;5118490;27;20499;-80
2023/07/21 08:05:42;;;;;;;6.03;2.63;;;20.20;99.90;;;;;;5123157;27;20502;-79
2023/07/21 08:08:10;;;;;;;2.00;1.63;;;20.60;99.90;;;;;;5115798;27;20450;-80
2023/07/21 08:10:37;;;;;;;1.50;1.40;;;20.50;99.90;;;;;;5123699;27;20449;-80
2023/07/21 08:13:05;;;;;;;3.83;2.30;;;20.50;99.90;;;;;;5115921;27;21099;-81
2023/07/21 08:15:32;;;;;;;1.80;1.70;;;20.20;99.90;;;;;;5118930;27;20454;-79
2023/07/21 08:18:00;;;;;;;2.60;1.80;;;19.90;99.90;;;;;;5119252;27;20462;-79
2023/07/21 08:20:27;;;;;;;1.70;1.60;;;20.00;99.90;;;;;;5118742;27;20937;-80
2023/07/21 08:22:55;;;;;;;1.90;1.73;;;19.90;99.90;;;;;;5125042;27;20558;-81
2023/07/21 08:25:25;;;;;;;2.63;1.50;;;19.70;99.90;;;;;;5115995;27;20540;-80
2023/07/21 08:27:52;;;;;;;1.50;1.40;;;19.30;99.90;;;;;;5122804;27;20477;-79
2023/07/21 08:30:19;;;;;;;2.87;2.67;;;19.30;99.90;;;;;;5123107;27;20500;-78
2023/07/21 08:32:45;;;;;;;3.80;2.40;;;19.00;99.90;;;;;;5118818;27;21088;-80
2023/07/21 08:35:14;;;;;;;3.50;1.80;;;19.00;99.90;;;;;;5120730;27;20449;-82
2023/07/21 08:37:42;;;;;;;2.00;1.70;;;19.40;99.90;;;;;;5122785;27;20501;-79
2023/07/21 08:40:10;;;;;;;3.50;2.07;;;19.30;99.90;;;;;;5119162;27;20449;-79
2023/07/21 08:42:37;;;;;;;3.37;2.37;;;19.70;99.90;;;;;;5116883;27;20513;-80
2023/07/21 08:45:05;;;;;;;1.87;1.77;;;20.20;99.90;;;;;;5120572;27;20955;-80
2023/07/21 08:47:33;;;;;;;2.40;1.87;;;20.30;99.90;;;;;;5123259;27;20822;-81
2023/07/21 08:50:00;;;;;;;2.90;2.13;;;21.10;99.90;;;;;;5121456;27;20442;-79
2023/07/21 08:52:28;;;;;;;1.93;1.20;;;21.80;99.90;;;;;;5128743;27;20978;-79
2023/07/21 08:54:55;;;;;;;3.37;1.37;;;22.10;99.90;;;;;;5116879;27;20467;-82
2023/07/21 08:57:22;;;;;;;3.90;1.80;;;22.30;99.90;;;;;;5124831;27;20938;-79
2023/07/21 08:59:49;;;;;;;1.47;1.27;;;22.30;99.90;;;;;;5124085;27;20630;-79
2023/07/21 09:02:16;;;;;;;7.77;3.40;;;22.40;99.90;;;;;;5117124;27;20573;-80
2023/07/21 09:04:44;;;;;;;1.80;1.53;;;22.40;99.90;;;;;;5126846;27;20477;-81
2023/07/21 09:07:12;;;;;;;3.80;1.80;;;22.50;99.90;;;;;;5122223;27;20473;-81
2023/07/21 09:09:49;;;;;;;4.23;1.80;;;22.60;99.90;;;;;;5123295;27;20446;-82
2023/07/21 09:12:16;;;;;;;1.10;1.00;;;22.40;99.90;;;;;;5124201;27;20449;-79
2023/07/21 09:14:45;;;;;;;1.50;1.40;;;22.20;99.90;;;;;;5122660;28;20449;-80
2023/07/21 09:17:13;;;;;;;2.13;1.73;;;22.50;99.90;;;;;;5114217;28;20491;-81
2023/07/21 09:19:41;;;;;;;2.73;1.53;;;23.10;99.90;;;;;;5124212;28;20448;-80
2023/07/21 09:22:09;;;;;;;1.70;1.33;;;23.50;99.90;;;;;;5118499;27;20473;-82
2023/07/21 09:24:37;;;;;;;1.30;1.20;;;23.90;99.90;;;;;;5118914;28;20947;-82
2023/07/21 09:27:23;;;;;;;1.77;1.67;;;23.70;99.90;;;;;;5117779;27;20462;-80
2023/07/21 09:29:58;;;;;;;2.33;1.80;;;23.40;99.90;;;;;;5116031;27;20545;-80
2023/07/21 09:32:25;;;;;;;1.90;1.17;;;23.40;99.90;;;;;;5119291;28;20511;-82
2023/07/21 09:34:57;;;;;;;5.10;1.60;;;23.00;99.90;;;;;;5113913;28;20482;-83
2023/07/21 09:37:26;;;;;;;1.60;1.10;;;23.50;99.90;;;;;;5118819;28;20530;-80
2023/07/21 09:39:54;;;;;;;3.67;1.60;;;23.40;99.90;;;;;;5116794;28;20456;-80
2023/07/21 09:42:24;;;;;;;2.27;1.40;;;23.30;99.90;;;;;;5117819;27;20570;-77
2023/07/21 09:44:53;;;;;;;4.23;1.53;;;23.80;99.90;;;;;;5119008;28;20457;-79
2023/07/21 09:47:21;;;;;;;11.13;2.00;;;23.40;99.90;;;;;;5113154;28;20475;-79
2023/07/21 09:49:49;;;;;;;3.13;1.57;;;23.40;99.90;;;;;;5115693;27;20464;-82
2023/07/21 09:52:17;;;;;;;1.53;1.43;;;23.80;99.90;;;;;;5114503;28;20495;-77
2023/07/21 09:54:46;;;;;;;1.30;1.20;;;24.10;99.90;;;;;;5122296;27;20472;-79
2023/07/21 09:57:17;;;;;;;1.53;1.20;;;24.40;99.90;;;;;;5121251;27;20476;-80
2023/07/21 09:59:49;;;;;;;2.47;1.20;;;24.60;99.90;;;;;;5112330;27;20442;-83
2023/07/21 10:02:17;;;;;;;2.47;1.67;;;24.70;99.90;;;;;;5126609;28;20490;-82
2023/07/21 10:04:44;;;;;;;3.53;1.77;;;25.00;99.90;;;;;;5126673;27;20521;-80
2023/07/21 10:07:12;;;;;;;8.13;1.83;;;25.30;99.90;;;;;;5123886;27;20498;-82
2023/07/21 10:09:40;;;;;;;2.67;1.67;;;25.60;99.90;;;;;;5126919;28;20455;-81
2023/07/21 10:12:10;;;;;;;3.47;1.70;;;25.60;99.90;;;;;;5125206;28;20487;-82
2023/07/21 10:14:39;;;;;;;4.47;1.43;;;25.70;99.90;;;;;;5129187;27;20451;-80
2023/07/21 10:17:08;;;;;;;1.43;1.17;;;25.80;98.60;;;;;;5126994;27;20548;-80
2023/07/21 10:19:41;;;;;;;1.90;1.30;;;25.60;98.30;;;;;;5126743;27;20928;-79
2023/07/21 10:22:12;;;;;;;3.07;1.93;;;25.50;99.90;;;;;;5128895;27;20473;-81
2023/07/21 10:24:45;;;;;;;1.60;1.50;;;24.50;99.90;;;;;;5131044;27;20471;-80
2023/07/21 10:27:20;;;;;;;1.97;1.03;;;24.70;99.90;;;;;;5124914;27;20494;-78
2023/07/21 10:29:47;;;;;;;1.70;1.50;;;25.20;99.90;;;;;;5124431;27;20440;-81
2023/07/21 10:32:19;;;;;;;1.63;1.50;;;24.90;99.90;;;;;;5129247;27;20569;-79
2023/07/21 10:34:46;;;;;;;1.40;1.30;;;25.10;99.90;;;;;;5130842;27;20442;-78
2023/07/21 10:37:13;;;;;;;1.63;1.40;;;25.30;99.90;;;;;;5127256;27;20525;-80
2023/07/21 10:39:42;;;;;;;1.80;1.20;;;25.70;99.90;;;;;;5132168;27;20445;-80
2023/07/21 10:42:10;;;;;;;2.60;1.73;;;25.90;99.90;;;;;;5129407;27;20442;-81
2023/07/21 10:44:40;;;;;;;1.40;1.30;;;26.60;99.50;;;;;;5128019;27;20512;-81
2023/07/21 10:47:12;;;;;;;6.30;1.40;;;27.00;98.30;;;;;;5125623;27;20487;-80
2023/07/21 10:49:41;;;;;;;1.37;1.10;;;26.20;96.20;;;;;;5129001;27;20448;-81
2023/07/21 10:52:09;;;;;;;2.03;1.20;;;26.60;96.40;;;;;;5126035;27;20495;-80
2023/07/21 10:54:36;;;;;;;1.40;1.20;;;26.00;97.60;;;;;;5129021;27;20473;-81
2023/07/21 10:57:04;;;;;;;8.60;3.30;;;26.20;98.30;;;;;;5126621;27;20462;-82
2023/07/21 10:59:32;;;;;;;2.17;1.60;;;26.80;98.40;;;;;;5128190;27;20471;-80
2023/07/21 11:02:00;;;;;;;1.57;0.97;;;27.00;97.10;;;;;;5121406;27;20472;-78
2023/07/21 11:04:27;;;;;;;1.43;1.33;;;27.40;95.50;;;;;;5127312;27;20512;-82
2023/07/21 11:06:57;;;;;;;1.83;1.37;;;27.80;96.80;;;;;;5121893;27;20492;-80
2023/07/21 11:09:25;;;;;;;1.73;1.50;;;27.60;94.90;;;;;;5128984;27;20452;-83
2023/07/21 11:11:53;;;;;;;1.47;1.00;;;27.60;94.80;;;;;;5121770;27;20971;-79
2023/07/21 11:14:23;;;;;;;1.67;1.50;;;27.20;95.90;;;;;;5119288;27;20472;-78
2023/07/21 11:16:51;;;;;;;1.33;1.23;;;27.30;95.70;;;;;;5122391;27;20847;-79
2023/07/21 11:19:19;;;;;;;1.90;1.80;;;27.10;96.70;;;;;;5115312;27;20472;-80
2023/07/21 11:21:46;;;;;;;2.10;1.30;;;26.80;95.00;;;;;;5124209;27;20472;-80
2023/07/21 11:24:18;;;;;;;1.33;1.23;;;26.50;95.80;;;;;;5119118;27;20489;-79
2023/07/21 11:26:47;;;;;;;1.93;1.83;;;25.80;97.00;;;;;;5123005;27;20557;-79
2023/07/21 11:29:15;;;;;;;1.40;1.30;;;25.40;98.70;;;;;;5121619;27;20473;-79
2023/07/21 11:31:42;;;;;;;1.20;1.20;;;25.20;99.60;;;;;;5127580;27;20480;-80
2023/07/21 11:34:19;;;;;;;2.07;1.87;;;25.00;99.90;;;;;;5118626;27;20476;-81
2023/07/21 11:36:48;;;;;;;1.57;1.47;;;24.70;99.90;;;;;;5123476;27;20477;-79
2023/07/21 11:39:21;;;;;;;1.30;1.20;;;24.40;99.90;;;;;;5125423;27;20488;-81
2023/07/21 11:41:51;;;;;;;2.77;2.00;;;24.20;99.90;;;;;;5116195;27;20441;-79
2023/07/21 11:44:23;;;;;;;1.63;1.50;;;24.10;99.90;;;;;;5118893;27;21276;-81
2023/07/21 11:46:59;;;;;;;2.13;1.47;;;24.00;99.90;;;;;;5122113;27;20563;-80
2023/07/21 11:49:28;;;;;;;1.73;1.63;;;23.90;99.90;;;;;;5120618;27;20474;-80
2023/07/21 11:51:58;;;;;;;1.50;1.40;;;23.60;99.90;;;;;;5125532;27;20449;-81
2023/07/21 11:54:27;;;;;;;1.73;1.53;;;23.30;99.90;;;;;;5110056;27;20453;-79
2023/07/21 11:56:56;;;;;;;1.50;1.40;;;23.30;99.90;;;;;;5125198;27;20440;-79
2023/07/21 11:59:24;;;;;;;3.00;1.40;;;23.30;99.90;;;;;;5126255;27;20872;-79
2023/07/21 12:01:51;;;;;;;1.63;1.53;;;23.20;99.90;;;;;;5120915;27;20546;-78
2023/07/21 12:04:20;;;;;;;2.10;1.60;;;23.10;99.90;;;;;;5126656;27;20541;-82
2023/07/21 12:06:48;;;;;;;2.83;2.00;;;23.10;99.90;;;;;;5120861;27;20488;-80
2023/07/21 12:09:15;;;;;;;4.90;1.57;;;23.00;99.90;;;;;;5124775;27;20527;-82
2023/07/21 12:11:44;;;;;;;5.23;1.60;;;22.90;99.90;;;;;;5125817;27;20466;-80
2023/07/21 12:14:11;;;;;;;1.40;1.30;;;22.80;99.90;;;;;;5120741;27;20470;-82
2023/07/21 12:16:38;;;;;;;1.67;1.57;;;22.70;99.90;;;;;;5125706;27;20486;-80
2023/07/21 12:19:06;;;;;;;2.50;1.50;;;22.70;99.90;;;;;;5120036;27;20492;-79
2023/07/21 12:21:35;;;;;;;3.13;2.70;;;22.70;99.90;;;;;;5120482;27;20461;-80
2023/07/21 12:24:02;;;;;;;7.13;1.90;;;22.70;99.90;;;;;;5123794;27;21008;-81
2023/07/21 12:26:29;;;;;;;4.00;1.50;;;22.60;99.90;;;;;;5121181;27;20469;-81
2023/07/21 12:28:57;;;;;;;1.47;1.27;;;22.20;99.90;;;;;;5124594;27;20480;-82
2023/07/21 12:31:25;;;;;;;1.67;1.30;;;21.40;99.90;;;;;;5117878;27;20965;-80
2023/07/21 12:33:52;;;;;;;2.90;1.97;;;21.30;99.90;;;;;;5115432;27;21023;-81
2023/07/21 12:36:20;;;;;;;1.80;1.30;;;21.00;99.90;;;;;;5110467;27;20472;-82
2023/07/21 12:38:47;;;;;;;1.77;1.57;;;21.00;99.90;;;;;;5122127;27;20489;-83
2023/07/21 12:41:16;;;;;;;1.63;1.20;;;20.90;99.90;;;;;;5124131;27;20483;-81
2023/07/21 12:43:43;;;;;;;1.47;1.27;;;20.80;99.90;;;;;;5120579;27;20493;-81
2023/07/21 12:46:14;;;;;;;2.50;1.50;;;20.90;99.90;;;;;;5119640;27;20536;-82
2023/07/21 12:48:42;;;;;;;2.27;1.63;;;21.20;99.90;;;;;;5113069;27;20860;-81
2023/07/21 12:51:10;;;;;;;2.17;1.37;;;21.10;99.90;;;;;;5119441;27;20502;-80